Time;durP1;ratioP1;P1;durP2;ratioP2;P2;SDS_P1;SDS_P2;PMS_P1;PMS_P2;Temp;Humidity;BMP_temperature;BMP_pressure;BME280_temperature;BME280_humidity;BME280_pressure;Samples;Min_cycle;Max_cycle;Signal;HPM_P1;HPM_P2
2022/05/30 00:02:25;;;;;;;6.07;4.30;;;;;;;9.20;57.76;99492.50;10428467;28;20135;-76
2022/05/30 00:07:27;;;;;;;6.45;4.00;;;;;;;9.19;57.62;99496.88;10425285;28;20128;-76
2022/05/30 00:12:28;;;;;;;6.18;3.40;;;;;;;9.24;57.73;99492.19;10427665;28;20130;-76
2022/05/30 00:17:30;;;;;;;7.35;4.75;;;;;;;9.27;57.67;99488.56;10420802;28;20159;-76
2022/05/30 00:22:32;;;;;;;6.18;4.40;;;;;;;9.16;57.66;99491.00;10429475;28;20089;-76
2022/05/30 00:27:34;;;;;;;7.18;4.78;;;;;;;9.16;57.89;99491.84;10427287;28;20486;-76
2022/05/30 00:32:36;;;;;;;6.78;4.43;;;;;;;9.13;58.00;99486.81;10427150;28;20056;-76
2022/05/30 00:37:38;;;;;;;7.20;4.30;;;;;;;9.10;58.12;99487.00;10423397;28;20057;-76
2022/05/30 00:42:40;;;;;;;6.60;4.60;;;;;;;8.97;58.40;99474.78;10425610;28;20128;-76
2022/05/30 00:47:41;;;;;;;7.07;3.95;;;;;;;8.81;58.50;99477.50;10426119;28;20081;-76
2022/05/30 00:52:44;;;;;;;5.95;3.92;;;;;;;8.78;58.85;99469.84;10427746;28;20135;-76
2022/05/30 00:57:48;;;;;;;7.15;4.60;;;;;;;8.78;58.74;99469.84;10422884;28;20045;-76
2022/05/30 01:08:10;;;;;;;8.60;5.03;;;;;;;8.74;58.61;99469.19;10426076;28;20057;-75
2022/05/30 01:13:15;;;;;;;6.95;4.93;;;;;;;8.74;59.07;99461.38;10426974;28;20115;-76
2022/05/30 01:18:23;;;;;;;6.45;4.80;;;;;;;8.93;58.96;99468.09;10424658;28;20185;-76
2022/05/30 01:23:51;;;;;;;6.38;4.78;;;;;;;8.97;59.03;99459.13;10424472;28;20115;-76
2022/05/30 01:29:01;;;;;;;8.35;4.85;;;;;;;9.09;58.88;99461.00;10431401;28;20714;-76
2022/05/30 01:34:03;;;;;;;8.73;4.95;;;;;;;9.10;58.56;99460.06;10431839;28;20100;-76
2022/05/30 01:39:05;;;;;;;8.88;4.72;;;;;;;9.13;58.41;99458.13;10436230;28;20347;-76
2022/05/30 01:44:07;;;;;;;5.72;4.25;;;;;;;8.94;58.32;99454.94;10435253;28;20096;-76
2022/05/30 01:49:09;;;;;;;6.50;4.00;;;;;;;8.77;58.57;99452.53;10432750;28;20132;-76
2022/05/30 01:54:11;;;;;;;7.32;4.10;;;;;;;8.69;58.61;99458.19;10432736;28;20061;-76
2022/05/30 01:59:13;;;;;;;6.90;4.60;;;;;;;8.69;58.75;99452.13;10434123;28;20219;-76
2022/05/30 02:04:16;;;;;;;7.22;5.50;;;;;;;8.81;58.88;99457.44;10436987;28;20440;-76
2022/05/30 02:09:17;;;;;;;7.57;5.90;;;;;;;8.93;58.65;99452.44;10439799;28;20076;-76
2022/05/30 02:14:20;;;;;;;6.75;4.82;;;;;;;8.87;58.89;99448.44;10442006;28;20052;-76
2022/05/30 02:19:21;;;;;;;7.28;4.82;;;;;;;8.90;58.80;99440.41;10442345;28;20122;-76
2022/05/30 02:24:24;;;;;;;7.70;5.00;;;;;;;9.03;58.69;99436.13;10441949;28;20126;-76
2022/05/30 02:29:26;;;;;;;7.15;5.38;;;;;;;8.94;59.08;99436.69;10443041;28;20161;-76
2022/05/30 02:39:48;;;;;;;7.68;5.22;;;;;;;8.98;59.07;99440.78;10439215;28;20049;-76
2022/05/30 02:44:49;;;;;;;7.03;5.75;;;;;;;9.13;58.80;99431.19;10437206;28;20095;-76
2022/05/30 02:49:51;;;;;;;8.50;6.00;;;;;;;9.14;58.92;99432.84;10441412;28;20080;-76
2022/05/30 02:54:53;;;;;;;8.90;5.82;;;;;;;9.21;58.75;99436.78;10438183;28;20079;-75
2022/05/30 02:59:55;;;;;;;7.38;6.10;;;;;;;9.10;58.96;99434.81;10439652;28;20134;-76
2022/05/30 03:04:56;;;;;;;9.95;7.63;;;;;;;9.09;58.92;99435.75;10435288;28;20080;-76
2022/05/30 03:09:58;;;;;;;8.68;7.13;;;;;;;9.14;58.98;99441.53;10434574;28;20119;-76
2022/05/30 03:15:00;;;;;;;8.02;6.47;;;;;;;9.17;58.90;99437.88;10434659;28;20143;-76
2022/05/30 03:20:03;;;;;;;8.30;6.60;;;;;;;9.16;59.04;99434.44;10433402;28;20080;-76
2022/05/30 03:25:05;;;;;;;8.40;7.05;;;;;;;9.13;59.23;99434.63;10433407;28;20097;-76
2022/05/30 03:30:08;;;;;;;9.15;6.95;;;;;;;9.07;59.29;99442.00;10433487;28;21095;-76
2022/05/30 03:35:11;;;;;;;10.45;7.07;;;;;;;9.15;59.20;99443.22;10432158;28;20053;-76
2022/05/30 03:40:15;;;;;;;10.25;7.18;;;;;;;9.18;59.06;99442.19;10431169;28;20048;-76
2022/05/30 03:45:17;;;;;;;10.52;7.85;;;;;;;9.20;59.05;99448.16;10426943;28;20517;-76
2022/05/30 03:50:24;;;;;;;8.13;7.25;;;;;;;9.29;59.22;99451.03;10428732;28;20111;-76
2022/05/30 03:55:41;;;;;;;10.43;8.73;;;;;;;9.32;59.30;99458.66;10429594;28;20391;-76
2022/05/30 04:00:44;;;;;;;10.07;7.88;;;;;;;9.40;58.89;99452.97;10429967;28;20084;-76
2022/05/30 04:05:46;;;;;;;10.30;7.65;;;;;;;9.39;58.90;99452.13;10430234;28;20552;-76
2022/05/30 04:10:48;;;;;;;11.30;8.45;;;;;;;9.47;58.87;99449.03;10430137;28;20051;-76
2022/05/30 04:15:49;;;;;;;10.57;7.50;;;;;;;9.53;58.78;99462.53;10429355;28;20128;-76
2022/05/30 04:20:51;;;;;;;11.15;8.23;;;;;;;9.59;58.92;99462.16;10430007;28;20040;-76
2022/05/30 04:25:53;;;;;;;11.75;8.60;;;;;;;9.70;58.59;99460.66;10429333;28;20053;-76
2022/05/30 04:30:55;;;;;;;10.52;8.13;;;;;;;9.88;58.11;99465.56;10418453;28;20091;-75
2022/05/30 04:35:57;;;;;;;9.20;7.53;;;;;;;9.98;58.01;99464.03;10427696;28;20486;-76
2022/05/30 04:40:59;;;;;;;11.50;9.10;;;;;;;9.95;58.21;99458.16;10426726;28;21003;-75
2022/05/30 04:46:04;;;;;;;11.23;8.50;;;;;;;10.03;58.53;99456.75;10426747;28;20060;-75
2022/05/30 04:51:06;;;;;;;10.65;9.10;;;;;;;10.08;58.28;99459.03;10426598;28;20083;-76
2022/05/30 04:56:08;;;;;;;10.65;8.43;;;;;;;10.36;58.02;99466.72;10425453;28;20127;-76
2022/05/30 05:01:10;;;;;;;11.30;8.95;;;;;;;10.52;57.51;99457.78;10426427;28;20140;-76
2022/05/30 05:06:19;;;;;;;12.82;10.25;;;;;;;10.57;57.89;99454.84;10423167;28;20491;-75
2022/05/30 05:11:27;;;;;;;11.07;8.73;;;;;;;10.75;57.56;99460.63;10419970;28;20072;-75
2022/05/30 05:16:31;;;;;;;13.60;10.80;;;;;;;10.88;56.61;99467.53;10425010;28;20052;-76
2022/05/30 05:21:36;;;;;;;11.95;9.70;;;;;;;10.91;57.00;99474.34;10423667;28;20051;-76
2022/05/30 05:26:47;;;;;;;11.68;8.88;;;;;;;11.03;57.05;99490.03;10427675;28;20056;-77
2022/05/30 05:31:49;;;;;;;12.60;9.30;;;;;;;11.26;56.39;99501.56;10427259;28;20064;-76
2022/05/30 05:36:52;;;;;;;13.32;9.68;;;;;;;11.34;56.15;99494.00;10425240;28;20061;-76
2022/05/30 05:41:54;;;;;;;10.52;8.45;;;;;;;11.51;55.83;99487.59;10423570;28;20077;-77
2022/05/30 05:46:57;;;;;;;11.32;8.95;;;;;;;11.82;55.34;99487.94;10425243;28;20085;-76
2022/05/30 05:51:59;;;;;;;11.73;10.05;;;;;;;12.14;54.53;99496.09;10424462;28;20510;-77
2022/05/30 05:57:01;;;;;;;11.98;9.57;;;;;;;12.19;54.32;99491.38;10425808;28;20131;-77
2022/05/30 06:02:07;;;;;;;11.95;9.73;;;;;;;12.35;54.17;99494.56;10423356;28;21148;-77
2022/05/30 06:07:09;;;;;;;14.50;10.70;;;;;;;12.62;53.58;99495.09;10440181;28;20053;-76
2022/05/30 06:12:10;;;;;;;11.23;9.57;;;;;;;13.13;52.75;99497.38;10424946;28;20520;-76
2022/05/30 06:17:12;;;;;;;14.35;11.05;;;;;;;12.99;52.56;99498.41;10431306;28;20120;-76
2022/05/30 06:22:14;;;;;;;13.77;9.45;;;;;;;12.99;52.79;99501.03;10429966;28;20049;-76
2022/05/30 06:27:18;;;;;;;11.38;9.15;;;;;;;13.52;51.63;99504.78;10431360;28;20602;-76
2022/05/30 06:32:21;;;;;;;12.50;9.63;;;;;;;14.24;50.35;99512.06;10431210;28;20518;-76
2022/05/30 06:37:23;;;;;;;10.23;8.65;;;;;;;14.43;49.89;99517.47;10431365;28;20139;-76
2022/05/30 06:42:26;;;;;;;11.75;8.57;;;;;;;14.52;49.01;99519.41;10429860;28;20056;-73
2022/05/30 06:47:27;;;;;;;10.40;8.20;;;;;;;14.51;48.87;99527.44;10430752;28;20126;-76
2022/05/30 06:52:30;;;;;;;8.45;6.88;;;;;;;15.19;47.34;99522.50;10431616;28;20114;-76
2022/05/30 07:02:53;;;;;;;9.05;5.55;;;;;;;16.39;44.25;99515.38;10427918;28;20053;-74
2022/05/30 07:07:58;;;;;;;8.65;5.47;;;;;;;16.16;43.66;99516.63;10428829;28;20048;-76
2022/05/30 07:13:00;;;;;;;8.70;4.25;;;;;;;16.52;42.41;99518.63;10431429;28;20056;-74
2022/05/30 07:18:13;;;;;;;7.53;3.88;;;;;;;17.11;41.04;99526.34;10430217;28;20052;-75
2022/05/30 07:23:15;;;;;;;7.00;3.40;;;;;;;17.88;39.59;99513.66;10427198;28;20053;-74
2022/05/30 07:28:17;;;;;;;6.30;3.53;;;;;;;17.56;39.46;99518.56;10428772;28;20092;-77
2022/05/30 07:33:19;;;;;;;7.47;3.00;;;;;;;16.61;40.22;99527.50;10425808;28;20140;-77
2022/05/30 07:38:21;;;;;;;7.15;3.05;;;;;;;15.99;41.72;99531.31;10426904;28;20353;-77
2022/05/30 07:43:23;;;;;;;6.72;3.10;;;;;;;15.44;42.67;99534.41;10427380;28;20596;-77
2022/05/30 07:48:25;;;;;;;5.55;2.88;;;;;;;14.93;43.33;99528.28;10428078;28;20624;-77
2022/05/30 07:53:27;;;;;;;8.52;2.80;;;;;;;15.03;44.13;99534.44;10428848;28;20903;-76
2022/05/30 07:58:29;;;;;;;6.18;3.33;;;;;;;14.76;45.42;99539.41;10428230;28;21068;-74
2022/05/30 08:03:31;;;;;;;5.95;2.90;;;;;;;14.54;47.40;99548.22;10421771;28;20520;-73
2022/05/30 08:08:33;;;;;;;5.90;3.50;;;;;;;14.31;48.97;99552.69;10425083;28;20801;-76
2022/05/30 08:13:36;;;;;;;8.80;3.75;;;;;;;14.25;49.47;99547.09;10422139;28;20056;-76
2022/05/30 08:18:38;;;;;;;7.38;3.20;;;;;;;14.31;50.00;99550.06;10425312;28;20683;-76
2022/05/30 08:23:39;;;;;;;7.07;3.25;;;;;;;14.79;48.04;99547.03;10420653;28;20692;-76
2022/05/30 08:28:41;;;;;;;5.25;2.58;;;;;;;15.13;48.11;99544.09;10426218;28;20129;-76
2022/05/30 08:33:43;;;;;;;6.10;2.40;;;;;;;16.37;44.48;99540.22;10423745;28;20067;-73
2022/05/30 08:38:45;;;;;;;3.60;2.17;;;;;;;17.79;40.45;99528.59;10424712;28;20465;-74
2022/05/30 08:43:49;;;;;;;4.15;2.20;;;;;;;19.31;38.62;99531.06;10421621;28;20261;-74
2022/05/30 08:49:26;;;;;;;5.45;2.20;;;;;;;20.19;35.49;99527.16;10423209;28;20585;-74
2022/05/30 08:54:37;;;;;;;5.18;2.10;;;;;;;20.80;35.76;99524.94;10425719;28;20555;-73
2022/05/30 08:59:45;;;;;;;7.35;2.65;;;;;;;20.09;34.48;99529.94;10424283;28;20048;-73
2022/05/30 09:11:38;;;;;;;5.07;2.20;;;;;;;16.48;38.96;99553.34;10420980;28;20045;-73
2022/05/30 09:16:50;;;;;;;4.07;1.80;;;;;;;15.88;39.70;99544.59;10420858;28;20501;-76
2022/05/30 09:22:01;;;;;;;4.78;2.08;;;;;;;15.79;41.23;99552.47;10424206;28;20049;-76
2022/05/30 09:27:04;;;;;;;4.75;2.05;;;;;;;15.95;40.81;99552.81;10423062;28;20134;-76
2022/05/30 09:32:43;;;;;;;5.72;1.90;;;;;;;15.91;39.67;99549.59;10425598;28;20136;-76
2022/05/30 09:37:45;;;;;;;5.13;1.80;;;;;;;16.68;39.22;99549.72;10421752;28;20498;-75
2022/05/30 09:42:55;;;;;;;8.15;2.20;;;;;;;17.31;37.50;99541.16;10418549;28;20106;-76
2022/05/30 09:48:22;;;;;;;4.28;2.20;;;;;;;17.47;36.31;99537.94;10427241;28;20056;-76
2022/05/30 09:53:43;;;;;;;5.78;2.28;;;;;;;18.42;34.16;99531.31;10434479;28;20057;-76
2022/05/30 09:59:00;;;;;;;7.05;2.17;;;;;;;19.53;32.01;99529.69;10438104;28;20064;-76
2022/05/30 10:04:35;;;;;;;5.35;2.13;;;;;;;19.95;30.77;99519.94;10449470;28;20052;-74
2022/05/30 10:09:53;;;;;;;6.25;2.05;;;;;;;20.54;30.12;99512.78;10419588;28;20056;-76
2022/05/30 10:14:56;;;;;;;6.15;2.10;;;;;;;19.80;31.95;99523.34;10434165;28;20566;-76
2022/05/30 10:20:40;;;;;;;4.13;1.85;;;;;;;19.27;33.15;99528.88;10428759;28;20067;-76
2022/05/30 10:31:33;;;;;;;5.65;2.00;;;;;;;18.15;34.98;99533.97;10434246;28;20143;-76
2022/05/30 10:36:57;;;;;;;6.25;1.92;;;;;;;17.78;35.56;99536.69;10432269;28;20053;-76
2022/05/30 10:42:05;;;;;;;6.15;2.05;;;;;;;18.33;34.88;99540.16;10433209;28;20131;-76
2022/05/30 10:47:15;;;;;;;8.30;2.03;;;;;;;19.14;32.78;99524.00;10431180;28;20106;-76
2022/05/30 10:52:44;;;;;;;7.07;1.98;;;;;;;19.00;32.07;99535.13;10432481;28;20135;-76
2022/05/30 10:57:53;;;;;;;6.28;2.00;;;;;;;18.76;33.78;99534.94;10423263;28;20127;-76
2022/05/30 11:03:05;;;;;;;5.30;2.30;;;;;;;19.03;32.68;99524.22;10430729;28;20144;-76
2022/05/30 11:08:45;;;;;;;6.20;2.22;;;;;;;19.20;33.49;99515.41;10426545;28;20049;-76
2022/05/30 11:13:55;;;;;;;6.03;2.15;;;;;;;18.83;33.69;99537.81;10429223;28;20084;-76
2022/05/30 11:19:21;;;;;;;6.00;2.40;;;;;;;17.93;33.66;99529.09;10427383;28;20158;-75
2022/05/30 11:24:23;;;;;;;4.25;1.80;;;;;;;17.91;34.31;99544.28;10430777;28;20565;-75
2022/05/30 11:29:55;;;;;;;4.43;1.67;;;;;;;17.91;33.94;99544.28;10421509;28;20084;-75
2022/05/30 11:35:31;;;;;;;5.38;2.00;;;;;;;17.75;33.22;99547.59;10426033;28;20657;-76
2022/05/30 11:40:46;;;;;;;4.70;1.80;;;;;;;17.91;34.08;99545.13;10424396;28;20139;-76
2022/05/30 11:45:55;;;;;;;5.43;1.90;;;;;;;18.62;30.35;99546.06;10427605;28;20422;-75
2022/05/30 11:51:08;;;;;;;5.33;2.20;;;;;;;18.90;30.43;99541.50;10422711;28;20056;-76
2022/05/30 11:56:31;;;;;;;4.20;1.80;;;;;;;18.56;30.21;99544.84;10428492;28;20222;-75
2022/05/30 12:01:34;;;;;;;8.02;1.75;;;;;;;18.74;31.02;99530.78;10427447;28;20052;-75
2022/05/30 12:06:42;;;;;;;5.82;1.80;;;;;;;18.53;30.59;99525.78;10430569;28;20053;-76
2022/05/30 12:11:59;;;;;;;5.00;1.77;;;;;;;18.68;30.61;99532.22;10427785;28;20049;-75
2022/05/30 12:17:26;;;;;;;4.07;1.83;;;;;;;17.77;30.88;99535.84;10427453;28;20088;-75
2022/05/30 12:28:32;;;;;;;3.25;1.70;;;;;;;18.99;29.77;99536.09;10426583;28;20049;-75
2022/05/30 12:33:33;;;;;;;4.90;1.73;;;;;;;19.45;28.92;99532.28;10432355;28;20154;-75
2022/05/30 12:38:57;;;;;;;8.25;2.10;;;;;;;18.95;27.86;99537.38;10428151;28;20045;-74
2022/05/30 12:43:59;;;;;;;2.70;1.60;;;;;;;18.93;29.10;99531.41;10428121;28;20116;-76
2022/05/30 12:49:04;;;;;;;3.38;1.80;;;;;;;19.14;27.99;99525.81;10425431;28;20049;-75
2022/05/30 12:54:07;;;;;;;4.85;1.73;;;;;;;19.32;27.95;99522.09;10423394;28;20084;-75
2022/05/30 12:59:11;;;;;;;3.17;1.70;;;;;;;18.86;28.38;99530.38;10426988;28;20049;-75
2022/05/30 13:04:26;;;;;;;2.97;1.50;;;;;;;18.91;28.02;99528.09;10423891;28;20417;-75
2022/05/30 13:09:40;;;;;;;3.07;1.50;;;;;;;18.97;27.33;99531.97;10424362;28;20045;-76
2022/05/30 13:15:00;;;;;;;3.85;1.40;;;;;;;19.63;26.46;99529.56;10418292;28;20059;-75
2022/05/30 13:20:13;;;;;;;;;;;;;;;19.47;27.35;99540.94;10426661;28;20187;-75
2022/05/30 13:25:20;;;;;;;7.45;1.50;;;;;;;19.82;27.40;99532.00;10433793;28;20017;-75
2022/05/30 13:30:28;;;;;;;4.35;1.50;;;;;;;19.40;27.71;99532.75;10431830;28;20092;-75
2022/05/30 13:35:31;;;;;;;3.95;1.58;;;;;;;19.08;29.15;99532.56;10428814;28;20484;-76
2022/05/30 13:40:34;;;;;;;4.18;1.65;;;;;;;19.76;28.39;99524.66;10432144;28;20077;-76
2022/05/30 13:45:40;;;;;;;4.45;2.00;;;;;;;19.98;27.81;99534.72;10428872;28;20076;-76
2022/05/30 13:50:47;;;;;;;3.95;1.50;;;;;;;19.26;28.52;99533.34;10431027;28;20053;-76
2022/05/30 13:56:11;;;;;;;3.75;1.80;;;;;;;18.89;28.91;99535.34;10426402;28;20132;-76
2022/05/30 14:01:18;;;;;;;3.88;1.60;;;;;;;19.13;28.61;99525.00;10421174;28;20055;-74
2022/05/30 14:06:28;;;;;;;6.05;1.70;;;;;;;19.34;29.14;99528.09;10428372;28;20055;-76
2022/05/30 14:11:38;;;;;;;5.80;1.70;;;;;;;19.22;28.53;99526.69;10430420;28;20237;-75
2022/05/30 14:16:54;;;;;;;5.23;1.70;;;;;;;19.28;29.09;99523.41;10431364;28;20055;-76
2022/05/30 14:22:10;;;;;;;4.10;1.75;;;;;;;19.20;28.76;99518.06;10438016;28;20057;-76
2022/05/30 14:27:18;;;;;;;5.15;1.92;;;;;;;19.09;28.18;99518.34;10426967;28;20631;-76
2022/05/30 14:32:20;;;;;;;4.03;1.88;;;;;;;18.82;28.49;99518.44;10427517;28;20085;-76
2022/05/30 14:37:33;;;;;;;4.85;2.03;;;;;;;18.65;27.83;99524.56;10432115;28;20098;-76
2022/05/30 14:42:42;;;;;;;4.43;1.80;;;;;;;18.55;28.45;99526.47;10430247;28;20085;-76
2022/05/30 14:47:51;;;;;;;4.35;1.77;;;;;;;18.47;27.95;99519.28;10434628;28;20060;-77
2022/05/30 14:52:58;;;;;;;3.75;1.75;;;;;;;18.18;28.97;99531.06;10425446;28;20095;-76
2022/05/30 14:58:17;;;;;;;4.65;2.00;;;;;;;18.44;27.47;99529.34;10428033;28;20092;-76
2022/05/30 15:08:40;;;;;;;5.65;2.05;;;;;;;18.76;27.17;99529.63;10423110;28;20115;-75
2022/05/30 15:13:44;;;;;;;5.07;1.88;;;;;;;18.11;28.71;99544.03;10416104;28;21015;-76
2022/05/30 15:18:46;;;;;;;4.72;2.05;;;;;;;18.41;27.95;99543.72;10403547;28;20056;-75
2022/05/30 15:23:49;;;;;;;4.93;2.00;;;;;;;18.61;27.64;99534.63;10408727;28;20056;-75
2022/05/30 15:28:52;;;;;;;4.18;2.15;;;;;;;19.00;26.76;99539.59;10409824;28;20183;-75
2022/05/30 15:33:54;;;;;;;3.67;1.90;;;;;;;19.14;26.83;99529.28;10409080;28;20056;-77
2022/05/30 15:38:56;;;;;;;4.70;2.25;;;;;;;19.06;27.30;99529.25;10411650;28;20569;-76
2022/05/30 15:43:59;;;;;;;4.00;1.90;;;;;;;18.86;26.78;99535.69;10427692;28;20122;-76
2022/05/30 15:49:02;;;;;;;5.53;2.05;;;;;;;18.77;26.99;99533.13;10412533;28;20052;-76
2022/05/30 16:00:16;;;;;;;3.55;1.90;;;;;;;19.45;27.02;99529.66;10402391;28;20135;-74
2022/05/30 16:05:19;;;;;;;4.72;1.80;;;;;;;19.43;26.63;99521.00;10412289;28;20163;-76
2022/05/30 16:10:23;;;;;;;5.15;2.33;;;;;;;19.29;26.68;99525.09;10410784;28;20486;-75
2022/05/30 16:15:26;;;;;;;5.53;2.10;;;;;;;19.46;27.63;99532.13;10410489;28;20156;-74
2022/05/30 16:20:29;;;;;;;6.20;1.90;;;;;;;19.29;27.08;99530.41;10409234;28;20187;-74
2022/05/30 16:25:31;;;;;;;3.28;1.80;;;;;;;19.01;28.50;99528.00;10421728;28;20105;-74
2022/05/30 16:30:33;;;;;;;5.53;2.03;;;;;;;18.98;27.81;99528.31;10425840;28;20045;-73
2022/05/30 16:35:35;;;;;;;7.10;2.05;;;;;;;18.81;28.06;99530.00;10426944;28;20088;-73
2022/05/30 16:40:37;;;;;;;5.78;2.30;;;;;;;18.50;28.08;99532.22;10424410;28;20567;-74
2022/05/30 16:45:40;;;;;;;5.80;2.20;;;;;;;18.31;28.52;99526.25;10424251;28;20582;-74
2022/05/30 16:50:44;;;;;;;3.63;2.17;;;;;;;18.20;28.86;99532.56;10414643;28;20053;-76
2022/05/30 16:55:46;;;;;;;4.13;2.15;;;;;;;18.04;28.55;99531.53;10412915;28;20071;-75
2022/05/30 17:00:48;;;;;;;5.78;2.00;;;;;;;17.69;28.63;99533.09;10418413;28;20041;-78
2022/05/30 17:05:54;;;;;;;8.88;2.53;;;;;;;17.54;29.46;99537.22;10409528;28;20049;-78
2022/05/30 17:10:56;;;;;;;3.95;2.10;;;;;;;17.31;29.87;99538.50;10409423;28;20119;-74
2022/05/30 17:16:07;;;;;;;4.57;1.90;;;;;;;17.11;30.11;99539.53;10410735;28;20080;-74
2022/05/30 17:21:09;;;;;;;6.35;2.00;;;;;;;17.17;30.38;99540.78;10408272;28;20049;-74
2022/05/30 17:29:05;;;;;;;4.60;2.30;;;;;;;17.09;29.89;99549.41;10407812;28;20170;-75
2022/05/30 17:31:39;;;;;;;6.70;2.42;;;;;;;16.85;29.92;99551.69;10410011;28;20114;-74
2022/05/30 17:36:41;;;;;;;5.28;2.38;;;;;;;16.66;29.95;99549.88;10409870;28;20072;-77
2022/05/30 17:41:45;;;;;;;6.78;2.38;;;;;;;16.74;30.18;99551.81;10409074;28;20445;-78
2022/05/30 17:47:04;;;;;;;5.95;2.25;;;;;;;16.47;30.72;99549.88;10409052;28;20637;-77
2022/05/30 17:52:22;;;;;;;3.78;2.10;;;;;;;16.40;31.46;99550.53;10402926;28;20079;-74
2022/05/30 17:57:25;;;;;;;4.72;2.35;;;;;;;16.33;31.98;99550.22;10405107;28;20136;-75
2022/05/30 18:02:28;;;;;;;4.55;2.20;;;;;;;16.24;31.58;99557.16;10411277;28;20060;-75
2022/05/30 18:07:50;;;;;;;4.40;2.10;;;;;;;16.05;31.92;99551.88;10406726;28;20045;-75
2022/05/30 18:13:12;;;;;;;6.18;2.20;;;;;;;15.96;32.08;99557.09;10417034;28;20145;-74
2022/05/30 18:24:44;;;;;;;4.53;2.10;;;;;;;15.90;32.78;99561.13;10428286;28;20183;-74
2022/05/30 18:29:47;;;;;;;5.10;2.25;;;;;;;15.90;33.19;99568.19;10430351;28;20049;-75
2022/05/30 18:35:06;;;;;;;6.28;2.00;;;;;;;15.67;33.65;99567.56;10431740;28;20081;-75
2022/05/30 18:40:20;;;;;;;5.35;2.33;;;;;;;15.53;34.67;99575.78;10430883;28;20052;-74
2022/05/30 18:45:28;;;;;;;6.30;2.85;;;;;;;15.33;35.09;99572.22;10449241;28;20065;-75
2022/05/30 18:50:31;;;;;;;4.68;2.70;;;;;;;15.25;36.33;99587.00;10431947;28;20053;-75
2022/05/30 18:55:34;;;;;;;6.20;3.47;;;;;;;15.13;37.20;99598.56;10424044;28;20063;-75
2022/05/30 19:00:37;;;;;;;7.35;3.80;;;;;;;14.97;36.93;99587.63;10425217;28;20103;-75
2022/05/30 19:05:40;;;;;;;6.10;3.25;;;;;;;14.81;37.32;99597.75;10429760;28;20057;-77
2022/05/30 19:11:00;;;;;;;7.65;2.80;;;;;;;14.64;38.03;99591.25;10441544;28;20053;-77
2022/05/30 19:21:24;;;;;;;5.35;2.60;;;;;;;14.01;39.17;99597.22;10427333;28;20048;-77
2022/05/30 19:26:27;;;;;;;5.18;2.60;;;;;;;13.93;39.96;99604.88;10432311;28;20068;-76
2022/05/30 19:31:29;;;;;;;7.78;2.70;;;;;;;13.91;40.51;99612.06;10425083;28;20057;-76
2022/05/30 19:36:33;;;;;;;6.35;2.75;;;;;;;13.65;41.53;99610.63;10430686;28;20061;-77
2022/05/30 19:41:36;;;;;;;5.82;2.85;;;;;;;13.34;41.37;99619.97;10421216;28;20137;-76
2022/05/30 19:46:41;;;;;;;4.43;2.60;;;;;;;13.14;42.56;99627.69;10428971;28;20498;-76
2022/05/30 19:51:45;;;;;;;6.72;3.00;;;;;;;13.11;42.86;99631.38;10430019;28;20041;-76
2022/05/30 19:56:48;;;;;;;5.80;2.70;;;;;;;13.11;43.54;99641.88;10430446;28;20072;-76
2022/05/30 20:01:50;;;;;;;7.00;2.80;;;;;;;12.94;44.02;99644.94;10429969;28;20139;-76
2022/05/30 20:06:52;;;;;;;5.88;3.20;;;;;;;12.87;44.74;99652.41;10429394;28;20084;-76
2022/05/30 20:11:54;;;;;;;6.65;2.80;;;;;;;12.82;45.24;99644.03;10428976;28;20057;-77
2022/05/30 20:16:57;;;;;;;5.53;2.83;;;;;;;12.57;45.54;99652.03;10428078;28;20656;-76
2022/05/30 20:22:01;;;;;;;5.93;3.22;;;;;;;12.31;46.18;99665.34;10428651;28;20247;-76
2022/05/30 20:27:04;;;;;;;6.88;2.92;;;;;;;12.13;46.34;99668.25;10427898;28;20052;-76
2022/05/30 20:32:07;;;;;;;5.72;3.20;;;;;;;11.83;46.69;99662.53;10429802;28;20115;-76
2022/05/30 20:37:11;;;;;;;6.25;2.97;;;;;;;11.77;47.00;99667.34;10429301;28;20439;-77
2022/05/30 20:47:40;;;;;;;5.28;3.47;;;;;;;11.64;48.51;99680.44;10429870;28;20100;-76
2022/05/30 20:52:42;;;;;;;6.68;3.20;;;;;;;11.52;48.14;99690.94;10429535;28;20099;-76
2022/05/30 20:57:45;;;;;;;6.20;3.40;;;;;;;11.52;48.17;99691.75;10428421;28;20500;-76
2022/05/30 21:02:48;;;;;;;5.53;3.40;;;;;;;11.49;48.42;99693.75;10426137;28;20075;-76
2022/05/30 21:07:50;;;;;;;6.40;3.40;;;;;;;11.19;48.76;99694.03;10429885;28;20057;-77
2022/05/30 21:12:53;;;;;;;5.82;3.20;;;;;;;11.13;49.16;99689.19;10432096;28;20118;-77
2022/05/30 21:18:18;;;;;;;7.13;3.70;;;;;;;10.74;50.34;99692.59;10430529;28;20133;-77
2022/05/30 21:23:21;;;;;;;6.97;3.95;;;;;;;10.56;50.27;99691.16;10432829;28;20114;-77
2022/05/30 21:28:23;;;;;;;5.10;3.78;;;;;;;10.61;50.62;99696.06;10428134;28;20060;-77
2022/05/30 21:33:38;;;;;;;7.00;3.50;;;;;;;10.37;51.65;99701.91;10431051;28;20045;-77
2022/05/30 21:38:40;;;;;;;5.85;3.60;;;;;;;10.49;50.91;99708.16;10431431;28;20088;-76
2022/05/30 21:43:42;;;;;;;8.05;4.05;;;;;;;10.53;50.95;99704.41;10430182;28;20106;-77
2022/05/30 21:48:44;;;;;;;5.85;3.67;;;;;;;10.52;51.18;99714.00;10439425;28;20131;-76
2022/05/30 21:53:46;;;;;;;5.93;3.40;;;;;;;10.52;51.14;99704.50;10437513;28;20189;-77
2022/05/30 21:58:53;;;;;;;5.40;3.90;;;;;;;10.35;51.38;99710.78;10437533;28;20177;-77
2022/05/30 22:04:02;;;;;;;5.55;4.10;;;;;;;9.82;52.65;99714.06;10434876;28;20077;-76
2022/05/30 22:09:05;;;;;;;5.25;3.60;;;;;;;9.72;52.95;99709.47;10437938;28;20787;-76
2022/05/30 22:14:07;;;;;;;5.07;3.30;;;;;;;9.93;52.73;99716.84;10434081;28;20049;-78
2022/05/30 22:19:09;;;;;;;7.82;3.90;;;;;;;9.79;52.74;99722.06;10434416;28;20083;-76
2022/05/30 22:24:13;;;;;;;5.05;3.33;;;;;;;9.85;53.15;99713.84;10435697;28;20084;-76
2022/05/30 22:29:15;;;;;;;6.18;3.58;;;;;;;9.77;53.20;99716.09;10433261;28;20506;-76
2022/05/30 22:34:17;;;;;;;6.18;3.38;;;;;;;9.80;53.17;99713.31;10433566;28;20482;-76
2022/05/30 22:39:19;;;;;;;6.38;3.70;;;;;;;9.27;53.77;99721.66;10433223;28;20048;-76
2022/05/30 22:44:21;;;;;;;5.85;3.40;;;;;;;9.22;54.30;99717.63;10428322;28;20170;-77
2022/05/30 22:49:22;;;;;;;6.60;3.50;;;;;;;9.21;54.46;99715.94;10432887;28;20149;-77
2022/05/30 22:54:25;;;;;;;5.20;3.60;;;;;;;9.40;54.46;99721.78;10426506;28;20593;-77
2022/05/30 22:59:27;;;;;;;6.72;3.70;;;;;;;9.54;54.30;99725.25;10429421;28;20092;-76
2022/05/30 23:04:29;;;;;;;6.38;3.60;;;;;;;9.29;54.35;99717.19;10429967;28;20199;-77
2022/05/30 23:09:31;;;;;;;4.82;3.40;;;;;;;9.26;54.87;99722.56;10432706;28;20053;-77
2022/05/30 23:14:34;;;;;;;9.18;3.58;;;;;;;9.35;54.79;99722.06;10431825;28;20502;-76
2022/05/30 23:19:43;;;;;;;8.02;3.70;;;;;;;9.41;55.01;99715.63;10433973;28;20730;-76
2022/05/30 23:24:47;;;;;;;4.82;3.55;;;;;;;9.18;55.04;99724.78;10451385;28;20080;-76
2022/05/30 23:29:50;;;;;;;5.15;3.53;;;;;;;9.25;55.06;99714.84;10425423;28;20164;-76
2022/05/30 23:34:52;;;;;;;6.97;4.10;;;;;;;8.97;55.41;99714.75;10430277;28;20667;-77
2022/05/30 23:39:54;;;;;;;5.47;3.78;;;;;;;9.00;55.72;99719.75;10431472;28;20045;-77
2022/05/30 23:44:56;;;;;;;7.72;4.40;;;;;;;8.67;56.20;99712.06;10429330;28;20130;-77
2022/05/30 23:49:58;;;;;;;6.30;3.42;;;;;;;8.73;56.34;99717.78;10428304;28;20851;-76
2022/05/30 23:55:00;;;;;;;5.53;3.50;;;;;;;8.86;56.07;99715.34;10430975;28;20137;-76
